createdAt,value
2023-05-17T00:01:56.929Z,16.20
2023-05-17T00:04:59.334Z,16.22
2023-05-17T00:08:01.707Z,16.21
2023-05-17T00:11:04.018Z,16.19
2023-05-17T00:14:06.306Z,16.19
2023-05-17T00:17:08.619Z,16.20
2023-05-17T00:20:11.445Z,16.20
2023-05-17T00:23:13.572Z,16.23
2023-05-17T00:26:15.952Z,16.24
2023-05-17T00:29:18.571Z,16.24
2023-05-17T00:32:21.018Z,16.21
2023-05-17T00:35:23.581Z,16.14
2023-05-17T00:38:27.610Z,16.11
2023-05-17T00:41:29.864Z,16.12
2023-05-17T00:44:32.191Z,16.12
2023-05-17T00:47:34.516Z,16.10
2023-05-17T00:50:37.634Z,16.06
2023-05-17T00:53:40.006Z,16.05
2023-05-17T00:56:42.561Z,16.04
2023-05-17T00:59:45.394Z,16.01
2023-05-17T01:02:48.853Z,16.01
2023-05-17T01:05:51.314Z,15.99
2023-05-17T01:08:53.721Z,16.00
2023-05-17T01:12:15.918Z,15.97
2023-05-17T01:15:18.229Z,15.98
2023-05-17T01:18:43.686Z,15.99
2023-05-17T01:22:05.044Z,16.00
2023-05-17T01:25:44.813Z,16.02
2023-05-17T01:28:50.115Z,16.00
2023-05-17T01:31:52.874Z,15.98
2023-05-17T01:34:55.136Z,15.95
2023-05-17T01:37:57.441Z,15.97
2023-05-17T01:41:09.716Z,15.98
2023-05-17T01:44:18.016Z,16.00
2023-05-17T01:47:27.490Z,16.02
2023-05-17T01:50:31.382Z,16.02
2023-05-17T01:53:38.799Z,16.03
2023-05-17T01:56:44.254Z,15.99
2023-05-17T01:59:46.874Z,15.96
2023-05-17T02:02:49.146Z,15.92
2023-05-17T02:05:51.562Z,15.93
2023-05-17T02:08:54.088Z,15.96
2023-05-17T02:11:57.064Z,15.98
2023-05-17T02:14:59.315Z,15.97
2023-05-17T02:18:01.763Z,15.98
2023-05-17T02:21:04.397Z,15.97
2023-05-17T02:24:06.909Z,15.96
2023-05-17T02:27:09.287Z,15.94
2023-05-17T02:30:14.528Z,15.93
2023-05-17T02:33:18.038Z,15.92
2023-05-17T02:36:20.457Z,15.92
2023-05-17T02:39:22.766Z,15.93
2023-05-17T02:42:25.926Z,15.91
2023-05-17T02:45:28.449Z,15.91
2023-05-17T02:48:30.947Z,15.91
2023-05-17T02:51:33.226Z,15.91
2023-05-17T02:54:36.371Z,15.90
2023-05-17T02:57:38.643Z,15.88
2023-05-17T03:00:45.554Z,15.88
2023-05-17T03:03:49.132Z,15.89
2023-05-17T03:06:51.827Z,15.91
2023-05-17T03:09:54.323Z,15.92
2023-05-17T03:12:56.873Z,15.91
2023-05-17T03:16:02.862Z,15.93
2023-05-17T03:19:05.356Z,15.93
2023-05-17T03:22:07.782Z,15.93
2023-05-17T03:25:10.123Z,15.95
2023-05-17T03:28:13.131Z,15.96
2023-05-17T03:31:15.782Z,15.97
2023-05-17T03:34:18.223Z,15.99
2023-05-17T03:37:20.523Z,15.98
2023-05-17T03:40:23.689Z,16.00
2023-05-17T03:43:26.236Z,16.00
2023-05-17T03:46:28.739Z,16.04
2023-05-17T03:49:30.886Z,16.07
2023-05-17T03:52:33.746Z,16.08
2023-05-17T03:55:36.006Z,16.03
2023-05-17T03:58:38.430Z,16.00
2023-05-17T04:01:43.078Z,16.02
2023-05-17T04:04:53.114Z,16.00
2023-05-17T04:07:56.736Z,15.99
2023-05-17T04:10:59.038Z,15.99
2023-05-17T04:14:01.467Z,16.01
2023-05-17T04:17:03.776Z,16.02
2023-05-17T04:20:06.759Z,16.05
2023-05-17T04:23:10.069Z,16.09
2023-05-17T04:26:12.379Z,16.09
2023-05-17T04:29:15.679Z,16.11
2023-05-17T04:32:18.875Z,16.12
2023-05-17T04:35:21.206Z,16.16
2023-05-17T04:38:26.686Z,16.19
2023-05-17T04:41:31.553Z,16.22
2023-05-17T04:44:34.783Z,16.22
2023-05-17T04:47:37.266Z,16.25
2023-05-17T04:50:39.880Z,16.26
2023-05-17T04:53:42.168Z,16.28
2023-05-17T04:56:49.565Z,16.29
2023-05-17T05:00:07.425Z,16.31
2023-05-17T05:03:11.142Z,16.36
2023-05-17T05:06:13.553Z,16.36
2023-05-17T05:09:16.476Z,16.40
2023-05-17T05:12:19.061Z,16.41
2023-05-17T05:15:22.615Z,16.47
2023-05-17T05:18:30.315Z,16.52
2023-05-17T05:21:32.872Z,16.56
2023-05-17T05:24:36.196Z,16.61
2023-05-17T05:27:38.781Z,16.66
2023-05-17T05:30:41.820Z,16.71
2023-05-17T05:33:44.261Z,16.75
2023-05-17T05:36:47.163Z,16.78
2023-05-17T05:39:50.692Z,16.77
2023-05-17T05:42:54.202Z,16.77
2023-05-17T05:45:56.619Z,16.76
2023-05-17T05:49:01.087Z,16.80
2023-05-17T05:52:05.412Z,16.79
2023-05-17T05:55:08.448Z,16.72
2023-05-17T05:58:10.677Z,16.72
2023-05-17T06:01:13.938Z,16.69
2023-05-17T06:04:16.225Z,16.71
2023-05-17T06:07:18.483Z,16.73
2023-05-17T06:10:20.842Z,16.76
2023-05-17T06:13:23.131Z,16.76
2023-05-17T06:16:25.413Z,16.79
2023-05-17T06:19:28.948Z,16.83
2023-05-17T06:22:31.288Z,16.84
2023-05-17T06:25:33.558Z,16.84
2023-05-17T06:28:36.242Z,16.85
2023-05-17T06:31:38.614Z,16.85
2023-05-17T06:34:40.997Z,16.84
2023-05-17T06:37:43.328Z,16.84
2023-05-17T06:40:45.683Z,16.89
2023-05-17T06:43:47.915Z,16.88
2023-05-17T06:46:50.321Z,16.86
2023-05-17T06:49:52.712Z,16.91
2023-05-17T06:52:55.040Z,16.95
2023-05-17T06:55:57.302Z,17.01
2023-05-17T06:58:59.765Z,17.05
2023-05-17T07:02:02.156Z,17.02
2023-05-17T07:05:07.786Z,17.03
2023-05-17T07:08:10.145Z,17.03
2023-05-17T07:11:12.472Z,17.03
2023-05-17T07:14:14.703Z,17.06
2023-05-17T07:17:16.942Z,17.08
2023-05-17T07:20:19.226Z,17.11
2023-05-17T07:23:21.550Z,17.13
2023-05-17T07:26:24.096Z,17.12
2023-05-17T07:29:26.399Z,17.12
2023-05-17T07:32:28.722Z,17.14
2023-05-17T07:35:31.337Z,17.14
2023-05-17T07:38:35.759Z,17.14
2023-05-17T07:41:38.015Z,17.12
2023-05-17T07:44:40.486Z,17.14
2023-05-17T07:47:43.035Z,17.14
2023-05-17T07:50:46.688Z,17.16
2023-05-17T07:53:48.975Z,17.16
2023-05-17T07:56:53.175Z,17.16
2023-05-17T07:59:55.564Z,17.15
2023-05-17T08:02:57.952Z,17.16
2023-05-17T08:06:00.273Z,17.14
2023-05-17T08:09:02.838Z,17.14
2023-05-17T08:12:05.511Z,17.13
2023-05-17T08:15:08.196Z,17.13
2023-05-17T08:18:10.790Z,17.14
2023-05-17T08:21:13.159Z,17.15
2023-05-17T08:24:15.627Z,17.18
2023-05-17T08:27:17.959Z,17.20
2023-05-17T08:30:31.521Z,17.22
2023-05-17T08:33:34.495Z,17.24
2023-05-17T08:36:36.934Z,17.28
2023-05-17T08:39:39.301Z,17.32
2023-05-17T08:42:41.915Z,17.35
2023-05-17T08:45:44.778Z,17.39
2023-05-17T08:48:47.101Z,17.42
2023-05-17T08:51:50.159Z,17.45
2023-05-17T08:54:52.772Z,17.51
2023-05-17T08:57:55.345Z,17.53
2023-05-17T09:00:58.765Z,17.59
2023-05-17T09:04:01.194Z,17.64
2023-05-17T09:07:03.450Z,17.73
2023-05-17T09:10:06.351Z,17.80
2023-05-17T09:13:13.058Z,17.92
2023-05-17T09:16:16.273Z,18.02
2023-05-17T09:19:18.687Z,18.10
2023-05-17T09:22:22.034Z,18.09
2023-05-17T09:25:25.012Z,18.11
2023-05-17T09:28:29.420Z,18.10
2023-05-17T09:31:33.320Z,18.09
2023-05-17T09:34:39.238Z,18.07
2023-05-17T09:37:42.978Z,18.00
2023-05-17T09:40:46.438Z,17.94
2023-05-17T09:43:49.275Z,17.85
2023-05-17T09:46:51.665Z,17.82
2023-05-17T09:49:56.511Z,17.84
2023-05-17T09:52:58.763Z,17.88
2023-05-17T09:56:01.828Z,18.05
2023-05-17T09:59:10.623Z,18.15
2023-05-17T10:02:22.587Z,18.15
2023-05-17T10:05:25.480Z,18.29
2023-05-17T10:08:30.093Z,18.53
2023-05-17T10:11:35.333Z,18.76
2023-05-17T10:14:38.224Z,18.89
2023-05-17T10:17:44.677Z,19.07
2023-05-17T10:20:48.231Z,19.14
2023-05-17T10:23:50.995Z,19.14
2023-05-17T10:26:54.018Z,19.11
2023-05-17T10:29:56.595Z,19.03
2023-05-17T10:33:00.235Z,19.05
2023-05-17T10:36:03.499Z,19.09
2023-05-17T10:39:08.889Z,19.09
2023-05-17T10:42:15.225Z,19.14
2023-05-17T10:45:22.274Z,19.21
2023-05-17T10:48:28.630Z,19.29
2023-05-17T10:51:38.051Z,19.40
2023-05-17T10:54:44.476Z,19.53
2023-05-17T10:58:08.549Z,19.71
2023-05-17T11:01:11.312Z,19.85
2023-05-17T11:04:27.796Z,19.87
2023-05-17T11:07:32.809Z,19.87
2023-05-17T11:10:36.136Z,19.84
2023-05-17T11:13:54.848Z,19.73
2023-05-17T11:16:58.350Z,19.73
2023-05-17T11:20:13.276Z,19.77
2023-05-17T11:23:19.804Z,19.87
2023-05-17T11:26:24.488Z,19.89
2023-05-17T11:29:29.869Z,19.85
2023-05-17T11:32:32.734Z,19.84
2023-05-17T11:35:38.679Z,19.79
2023-05-17T11:38:41.135Z,19.76
2023-05-17T11:41:54.381Z,19.73
2023-05-17T11:44:58.390Z,19.69
2023-05-17T11:48:01.120Z,19.71
2023-05-17T11:51:03.369Z,19.72
2023-05-17T11:54:07.311Z,19.70
2023-05-17T11:57:09.637Z,19.66
2023-05-17T12:00:12.479Z,19.68
2023-05-17T12:03:27.723Z,19.74
2023-05-17T12:06:30.306Z,19.81
2023-05-17T12:09:32.652Z,19.85
2023-05-17T12:12:34.984Z,19.85
2023-05-17T12:15:41.432Z,19.82
2023-05-17T12:18:47.418Z,19.80
2023-05-17T12:21:50.710Z,19.81
2023-05-17T12:24:53.142Z,19.82
2023-05-17T12:28:15.588Z,19.80
2023-05-17T12:31:20.628Z,19.74
2023-05-17T12:34:23.306Z,19.68
2023-05-17T12:37:25.620Z,19.68
2023-05-17T12:40:28.620Z,19.66
2023-05-17T12:43:33.455Z,19.73
2023-05-17T12:46:35.889Z,19.73
2023-05-17T12:49:39.881Z,19.80
2023-05-17T12:52:42.226Z,19.86
2023-05-17T12:55:44.478Z,19.88
2023-05-17T12:59:05.033Z,19.87
2023-05-17T13:02:07.516Z,19.83
2023-05-17T13:05:18.380Z,19.82
2023-05-17T13:08:21.710Z,19.81
2023-05-17T13:11:25.511Z,19.73
2023-05-17T13:14:38.190Z,19.62
2023-05-17T13:17:44.905Z,19.56
2023-05-17T13:20:47.331Z,19.51
2023-05-17T13:23:50.112Z,19.49
2023-05-17T13:26:52.282Z,19.50
2023-05-17T13:29:54.452Z,19.53
2023-05-17T13:32:57.022Z,19.53
2023-05-17T13:35:59.365Z,19.50
2023-05-17T13:39:02.204Z,19.49
2023-05-17T13:42:05.734Z,19.48
2023-05-17T13:45:09.313Z,19.47
2023-05-17T13:48:12.089Z,19.43
2023-05-17T13:51:14.707Z,19.18
2023-05-17T13:54:17.377Z,19.19
2023-05-17T13:57:19.642Z,19.12
2023-05-17T14:00:22.364Z,19.11
2023-05-17T14:03:24.680Z,19.12
2023-05-17T14:06:27.149Z,19.12
2023-05-17T14:09:32.978Z,19.12
2023-05-17T14:12:36.007Z,19.14
2023-05-17T14:15:40.960Z,19.17
2023-05-17T14:18:53.142Z,19.18
2023-05-17T14:21:56.072Z,19.19
2023-05-17T14:24:58.432Z,19.12
2023-05-17T14:28:00.913Z,19.06
2023-05-17T14:31:03.649Z,19.02
2023-05-17T14:34:06.239Z,18.98
2023-05-17T14:37:08.635Z,18.97
2023-05-17T14:40:12.212Z,18.99
2023-05-17T14:43:14.554Z,18.94
2023-05-17T14:46:17.047Z,18.71
2023-05-17T14:49:19.376Z,18.83
2023-05-17T14:52:21.778Z,18.78
2023-05-17T14:55:26.886Z,18.68
2023-05-17T14:58:29.277Z,18.79
2023-05-17T15:01:31.729Z,18.76
2023-05-17T15:04:34.117Z,18.77
2023-05-17T15:07:36.662Z,18.76
2023-05-17T15:10:38.948Z,18.69
2023-05-17T15:13:41.376Z,18.66
2023-05-17T15:16:43.601Z,18.53
2023-05-17T15:19:46.450Z,18.56
2023-05-17T15:22:48.806Z,18.54
2023-05-17T15:25:51.141Z,18.44
2023-05-17T15:28:53.513Z,18.46
2023-05-17T15:31:56.090Z,18.45
2023-05-17T15:34:59.185Z,18.45
2023-05-17T15:38:05.551Z,18.37
2023-05-17T15:41:11.483Z,18.36
2023-05-17T15:44:13.826Z,18.32
2023-05-17T15:47:16.077Z,18.31
2023-05-17T15:50:18.397Z,18.25
2023-05-17T15:53:20.796Z,18.21
2023-05-17T15:56:23.416Z,18.13
2023-05-17T15:59:25.785Z,18.09
2023-05-17T16:02:28.062Z,18.01
2023-05-17T16:05:33.781Z,17.97
2023-05-17T16:08:36.353Z,17.89
2023-05-17T16:11:38.754Z,17.81
2023-05-17T16:14:41.315Z,17.76
2023-05-17T16:17:43.694Z,17.73
2023-05-17T16:20:46.091Z,17.68
2023-05-17T16:23:48.493Z,17.64
2023-05-17T16:26:51.629Z,17.62
2023-05-17T16:29:56.289Z,17.55
2023-05-17T16:32:58.765Z,17.49
2023-05-17T16:36:04.331Z,17.47
2023-05-17T16:39:07.285Z,17.42
2023-05-17T16:42:09.696Z,17.38
2023-05-17T16:45:12.075Z,17.33
2023-05-17T16:48:15.151Z,17.29
2023-05-17T16:51:17.633Z,17.23
2023-05-17T16:54:20.083Z,17.18
2023-05-17T16:57:22.332Z,17.16
2023-05-17T17:00:24.635Z,17.11
2023-05-17T17:03:27.154Z,17.05
2023-05-17T17:06:29.455Z,17.02
2023-05-17T17:09:32.293Z,16.99
2023-05-17T17:12:34.530Z,17.00
2023-05-17T17:15:36.745Z,17.00
2023-05-17T17:18:39.027Z,17.00
2023-05-17T17:21:42.367Z,16.97
2023-05-17T17:24:44.705Z,16.94
2023-05-17T17:27:47.024Z,16.91
2023-05-17T17:30:49.294Z,16.87
2023-05-17T17:33:52.089Z,16.83
2023-05-17T17:36:54.504Z,16.76
2023-05-17T17:39:57.060Z,16.72
2023-05-17T17:42:59.390Z,16.68
2023-05-17T17:46:01.777Z,16.65
2023-05-17T17:49:04.025Z,16.65
2023-05-17T17:52:06.404Z,16.64
2023-05-17T17:55:10.812Z,16.60
2023-05-17T17:58:13.267Z,16.57
2023-05-17T18:01:15.571Z,16.51
2023-05-17T18:04:17.909Z,16.42
2023-05-17T18:07:20.502Z,16.36
2023-05-17T18:10:22.854Z,16.24
2023-05-17T18:13:25.295Z,16.24
2023-05-17T18:16:27.538Z,16.26
2023-05-17T18:19:29.855Z,16.28
2023-05-17T18:22:32.582Z,16.25
2023-05-17T18:25:35.052Z,16.25
2023-05-17T18:28:42.552Z,16.23
2023-05-17T18:31:47.427Z,16.24
2023-05-17T18:34:49.907Z,16.23
2023-05-17T18:37:52.241Z,16.20
2023-05-17T18:40:54.657Z,16.16
2023-05-17T18:44:01.737Z,16.09
2023-05-17T18:47:04.372Z,16.02
2023-05-17T18:50:07.402Z,16.04
2023-05-17T18:53:09.951Z,16.05
2023-05-17T18:56:13.337Z,16.02
2023-05-17T18:59:16.164Z,16.01
2023-05-17T19:02:18.415Z,16.00
2023-05-17T19:05:21.352Z,16.00
2023-05-17T19:08:23.823Z,15.93
2023-05-17T19:11:28.631Z,15.91
2023-05-17T19:14:32.113Z,15.88
2023-05-17T19:17:34.677Z,15.90
2023-05-17T19:20:37.189Z,15.92
2023-05-17T19:23:39.573Z,15.89
2023-05-17T19:26:41.852Z,15.88
2023-05-17T19:29:44.129Z,15.89
2023-05-17T19:32:46.470Z,15.88
2023-05-17T19:35:49.871Z,15.90
2023-05-17T19:38:52.227Z,15.89
2023-05-17T19:41:54.538Z,15.91
2023-05-17T19:44:56.837Z,15.89
2023-05-17T19:47:59.219Z,15.83
2023-05-17T19:51:01.578Z,15.83
2023-05-17T19:54:04.010Z,15.83
2023-05-17T19:57:06.503Z,15.78
2023-05-17T20:00:09.327Z,15.73
2023-05-17T20:03:11.646Z,15.70
2023-05-17T20:06:16.746Z,15.63
2023-05-17T20:09:19.148Z,15.62
2023-05-17T20:12:21.810Z,15.63
2023-05-17T20:15:24.962Z,15.52
2023-05-17T20:18:29.959Z,15.52
2023-05-17T20:21:32.542Z,15.49
2023-05-17T20:24:35.224Z,15.49
2023-05-17T20:27:37.541Z,15.41
2023-05-17T20:30:42.080Z,15.43
2023-05-17T20:33:50.278Z,15.38
2023-05-17T20:36:52.505Z,15.39
2023-05-17T20:39:57.399Z,15.43
2023-05-17T20:42:59.665Z,15.47
2023-05-17T20:46:06.656Z,15.51
2023-05-17T20:49:09.808Z,15.52
2023-05-17T20:52:13.120Z,15.54
2023-05-17T20:55:16.020Z,15.35
2023-05-17T20:58:18.630Z,15.31
2023-05-17T21:01:21.448Z,15.08
2023-05-17T21:04:24.964Z,15.17
2023-05-17T21:07:30.186Z,15.28
2023-05-17T21:10:32.663Z,15.31
2023-05-17T21:13:34.995Z,15.32
2023-05-17T21:16:37.309Z,15.35
2023-05-17T21:19:39.641Z,15.38
2023-05-17T21:22:42.004Z,15.42
2023-05-17T21:25:44.496Z,15.43
2023-05-17T21:28:46.765Z,15.46
2023-05-17T21:31:49.204Z,15.45
2023-05-17T21:34:53.806Z,15.47
2023-05-17T21:37:56.838Z,15.50
2023-05-17T21:40:59.188Z,15.48
2023-05-17T21:44:01.526Z,15.50
2023-05-17T21:47:03.980Z,15.52
2023-05-17T21:50:06.761Z,15.55
2023-05-17T21:53:09.075Z,15.54
2023-05-17T21:56:11.414Z,15.51
2023-05-17T21:59:13.764Z,15.52
2023-05-17T22:02:16.469Z,15.53
2023-05-17T22:05:18.800Z,15.53
2023-05-17T22:08:21.174Z,15.50
2023-05-17T22:11:26.069Z,15.48
2023-05-17T22:14:33.299Z,15.49
2023-05-17T22:17:47.633Z,15.51
2023-05-17T22:20:53.273Z,15.51
2023-05-17T22:23:56.612Z,15.53
2023-05-17T22:26:58.900Z,15.50
2023-05-17T22:30:01.218Z,15.48
2023-05-17T22:33:03.681Z,15.50
2023-05-17T22:36:07.432Z,15.52
2023-05-17T22:39:09.793Z,15.50
2023-05-17T22:42:12.069Z,15.51
2023-05-17T22:45:14.576Z,15.51
2023-05-17T22:48:16.978Z,15.51
2023-05-17T22:51:19.703Z,15.49
2023-05-17T22:54:22.072Z,15.48
2023-05-17T22:57:24.393Z,15.49
2023-05-17T23:00:26.740Z,15.46
2023-05-17T23:03:29.130Z,15.41
2023-05-17T23:06:34.472Z,15.43
2023-05-17T23:09:40.649Z,15.41
2023-05-17T23:12:43.159Z,15.39
2023-05-17T23:15:46.598Z,15.37
2023-05-17T23:18:49.225Z,15.38
2023-05-17T23:21:51.547Z,15.36
2023-05-17T23:24:54.078Z,15.34
2023-05-17T23:27:58.170Z,15.31
2023-05-17T23:31:02.292Z,15.28
2023-05-17T23:34:06.814Z,15.24
2023-05-17T23:37:09.196Z,15.19
2023-05-17T23:40:12.255Z,15.12
2023-05-17T23:43:14.849Z,15.06
2023-05-17T23:46:19.743Z,15.02
2023-05-17T23:49:23.550Z,14.97
2023-05-17T23:52:29.946Z,14.95
2023-05-17T23:55:32.341Z,14.90
2023-05-17T23:58:34.690Z,14.88
